UPS3590 LIPY-LEBL
Flight info
| Callsign | UPS3590 |
|---|---|
| Flight time | 1h 28m |
| Altitude | 34000 |
| Route | BIDMA / M730 LIKNO / VABMO / IXITO / ENOBA / GEKBA / VAMTU / KOLON / GANGU / PADKO / DIVKO / NILDU / BISBA |
| Aircraft | A306/M-SNODFIRWY/CS |
Departure
| Time | 2026-04-15 20:46 |
|---|---|
| Airport | Marche Airport (LIPY) |
Arrival
| Time | 2026-04-15 22:14 |
|---|---|
| Airport | Josep Tarradellas Barcelona-El Prat Airport (LEBL) |
| Time | Latitude | Longitude | Altitude | Speed | Heading |
|---|---|---|---|---|---|
| 2026-04-15 20:22 | 43.60884 | 13.35654 | 62 ft | 0 kts | 103° |
| 2026-04-15 20:31 | 43.60887 | 13.35637 | 62 ft | 0 kts | 79° |
| 2026-04-15 20:31 | 43.60886 | 13.35623 | 62 ft | 2 kts | 95° |
| 2026-04-15 20:32 | 43.60890 | 13.35601 | 62 ft | 2 kts | 124° |
| 2026-04-15 20:32 | 43.60902 | 13.35587 | 61 ft | 2 kts | 161° |
| 2026-04-15 20:32 | 43.60918 | 13.35587 | 61 ft | 2 kts | 211° |
| 2026-04-15 20:32 | 43.60923 | 13.35592 | 61 ft | 0 kts | 220° |
| 2026-04-15 20:40 | 43.60920 | 13.35588 | 63 ft | 2 kts | 221° |
| 2026-04-15 20:41 | 43.60905 | 13.35567 | 63 ft | 4 kts | 225° |
| 2026-04-15 20:41 | 43.60875 | 13.35526 | 61 ft | 8 kts | 225° |
| 2026-04-15 20:41 | 43.60836 | 13.35464 | 61 ft | 10 kts | 227° |
| 2026-04-15 20:41 | 43.60783 | 13.35389 | 62 ft | 12 kts | 226° |
| 2026-04-15 20:42 | 43.60726 | 13.35308 | 62 ft | 0 kts | 226° |
| 2026-04-15 20:42 | 43.60724 | 13.35305 | 62 ft | 2 kts | 226° |
| 2026-04-15 20:43 | 43.60704 | 13.35277 | 57 ft | 3 kts | 228° |
| 2026-04-15 20:43 | 43.60704 | 13.35253 | 58 ft | 1 kts | 277° |
| 2026-04-15 20:44 | 43.60708 | 13.35237 | 61 ft | 3 kts | 294° |
| 2026-04-15 20:44 | 43.60719 | 13.35214 | 62 ft | 2 kts | 311° |
| 2026-04-15 20:45 | 43.60737 | 13.35187 | 62 ft | 5 kts | 313° |
| 2026-04-15 20:45 | 43.60766 | 13.35150 | 59 ft | 7 kts | 317° |
| 2026-04-15 20:45 | 43.60821 | 13.35130 | 62 ft | 11 kts | 13° |
| 2026-04-15 20:45 | 43.60875 | 13.35191 | 56 ft | 22 kts | 45° |
| 2026-04-15 20:46 | 43.61183 | 13.35609 | 61 ft | 100 kts | 44° |
| 2026-04-15 20:46 | 43.61831 | 13.36491 | 110 ft | 157 kts | 43° |
| 2026-04-15 20:46 | 43.62685 | 13.37593 | 656 ft | 179 kts | 43° |
| 2026-04-15 20:46 | 43.63677 | 13.38948 | 1019 ft | 224 kts | 44° |
| 2026-04-15 20:47 | 43.64852 | 13.40587 | 1266 ft | 250 kts | 45° |
| 2026-04-15 20:47 | 43.66113 | 13.42316 | 1902 ft | 258 kts | 40° |
| 2026-04-15 20:47 | 43.67650 | 13.43424 | 3176 ft | 246 kts | 10° |
| 2026-04-15 20:47 | 43.69272 | 13.43341 | 4592 ft | 231 kts | 350° |
| 2026-04-15 20:48 | 43.70816 | 13.42892 | 5974 ft | 224 kts | 347° |
| 2026-04-15 20:48 | 43.72357 | 13.42387 | 7206 ft | 227 kts | 348° |
| 2026-04-15 20:48 | 43.73890 | 13.41881 | 8316 ft | 232 kts | 348° |
| 2026-04-15 20:48 | 43.75485 | 13.41366 | 9280 ft | 240 kts | 348° |
| 2026-04-15 20:49 | 43.77121 | 13.40744 | 9861 ft | 249 kts | 338° |
| 2026-04-15 20:49 | 43.78470 | 13.39267 | 10090 ft | 252 kts | 302° |
| 2026-04-15 20:49 | 43.78954 | 13.36980 | 10122 ft | 250 kts | 265° |
| 2026-04-15 20:49 | 43.78442 | 13.34712 | 10143 ft | 248 kts | 241° |
| 2026-04-15 20:50 | 43.77607 | 13.32608 | 10139 ft | 251 kts | 238° |
| 2026-04-15 20:50 | 43.76750 | 13.30493 | 10137 ft | 252 kts | 238° |
| 2026-04-15 20:50 | 43.75836 | 13.28428 | 10137 ft | 251 kts | 234° |
| 2026-04-15 20:50 | 43.74868 | 13.26422 | 10290 ft | 253 kts | 234° |
| 2026-04-15 20:51 | 43.73851 | 13.24331 | 10664 ft | 274 kts | 234° |
| 2026-04-15 20:51 | 43.72736 | 13.22023 | 11084 ft | 301 kts | 234° |
| 2026-04-15 20:51 | 43.71539 | 13.19527 | 11451 ft | 325 kts | 234° |
| 2026-04-15 20:51 | 43.70252 | 13.16827 | 11808 ft | 346 kts | 235° |
| 2026-04-15 20:52 | 43.68973 | 13.13898 | 12139 ft | 365 kts | 238° |
| 2026-04-15 20:52 | 43.67713 | 13.10781 | 12571 ft | 379 kts | 242° |
| 2026-04-15 20:52 | 43.66864 | 13.07301 | 13179 ft | 388 kts | 259° |
| 2026-04-15 20:52 | 43.66858 | 13.03534 | 13854 ft | 395 kts | 276° |
| 2026-04-15 20:53 | 43.67331 | 12.99775 | 14554 ft | 398 kts | 282° |
| 2026-04-15 20:53 | 43.67998 | 12.96040 | 15217 ft | 402 kts | 284° |
| 2026-04-15 20:53 | 43.68741 | 12.92346 | 15855 ft | 406 kts | 285° |
| 2026-04-15 20:53 | 43.69515 | 12.88573 | 16493 ft | 410 kts | 285° |
| 2026-04-15 20:54 | 43.70281 | 12.84769 | 17121 ft | 414 kts | 285° |
| 2026-04-15 20:54 | 43.71034 | 12.80907 | 17785 ft | 416 kts | 285° |
| 2026-04-15 20:54 | 43.71768 | 12.77025 | 18374 ft | 420 kts | 284° |
| 2026-04-15 20:54 | 43.72493 | 12.73100 | 18946 ft | 423 kts | 284° |
| 2026-04-15 20:55 | 43.73215 | 12.69138 | 19538 ft | 426 kts | 284° |
| 2026-04-15 20:55 | 43.73940 | 12.65143 | 20052 ft | 429 kts | 284° |
| 2026-04-15 20:55 | 43.74664 | 12.61139 | 20601 ft | 432 kts | 284° |
| 2026-04-15 20:55 | 43.75397 | 12.57090 | 21101 ft | 435 kts | 284° |
| 2026-04-15 20:56 | 43.76131 | 12.53015 | 21622 ft | 437 kts | 284° |
| 2026-04-15 20:56 | 43.76867 | 12.48931 | 22085 ft | 440 kts | 284° |
| 2026-04-15 20:56 | 43.77559 | 12.44792 | 22556 ft | 442 kts | 280° |
| 2026-04-15 20:56 | 43.77857 | 12.40608 | 23046 ft | 444 kts | 273° |
| 2026-04-15 20:57 | 43.77938 | 12.36329 | 23459 ft | 447 kts | 270° |
| 2026-04-15 20:57 | 43.77900 | 12.32027 | 23880 ft | 449 kts | 269° |
| 2026-04-15 20:57 | 43.77798 | 12.27692 | 24273 ft | 451 kts | 268° |
| 2026-04-15 20:57 | 43.77670 | 12.23347 | 24637 ft | 454 kts | 268° |
| 2026-04-15 20:58 | 43.77538 | 12.18973 | 25035 ft | 455 kts | 268° |
| 2026-04-15 20:58 | 43.77408 | 12.14585 | 25385 ft | 457 kts | 268° |
| 2026-04-15 20:58 | 43.77285 | 12.10178 | 25745 ft | 459 kts | 268° |
| 2026-04-15 20:58 | 43.77167 | 12.05768 | 26055 ft | 461 kts | 268° |
| 2026-04-15 20:59 | 43.77051 | 12.01323 | 26370 ft | 463 kts | 268° |
| 2026-04-15 20:59 | 43.76936 | 11.96880 | 26707 ft | 464 kts | 268° |
| 2026-04-15 20:59 | 43.76819 | 11.92398 | 27005 ft | 466 kts | 268° |
| 2026-04-15 20:59 | 43.76699 | 11.87914 | 27276 ft | 468 kts | 268° |
| 2026-04-15 21:00 | 43.76577 | 11.83400 | 27546 ft | 470 kts | 268° |
| 2026-04-15 21:00 | 43.76453 | 11.78886 | 27807 ft | 471 kts | 268° |
| 2026-04-15 21:00 | 43.76326 | 11.74339 | 28057 ft | 473 kts | 268° |
| 2026-04-15 21:00 | 43.76197 | 11.69794 | 28308 ft | 474 kts | 268° |
| 2026-04-15 21:01 | 43.76063 | 11.65236 | 28660 ft | 473 kts | 268° |
| 2026-04-15 21:01 | 43.75931 | 11.60697 | 29028 ft | 472 kts | 268° |
| 2026-04-15 21:01 | 43.75797 | 11.56165 | 29386 ft | 471 kts | 268° |
| 2026-04-15 21:01 | 43.75664 | 11.51699 | 29730 ft | 470 kts | 268° |
| 2026-04-15 21:02 | 43.75527 | 11.47129 | 30051 ft | 469 kts | 268° |
| 2026-04-15 21:02 | 43.75390 | 11.42684 | 30360 ft | 469 kts | 268° |
| 2026-04-15 21:02 | 43.75249 | 11.38192 | 30645 ft | 470 kts | 268° |
| 2026-04-15 21:02 | 43.75106 | 11.33679 | 30979 ft | 469 kts | 268° |
| 2026-04-15 21:03 | 43.74963 | 11.29182 | 31286 ft | 469 kts | 268° |
| 2026-04-15 21:03 | 43.74817 | 11.24669 | 31588 ft | 469 kts | 268° |
| 2026-04-15 21:03 | 43.74670 | 11.20158 | 31873 ft | 469 kts | 269° |
| 2026-04-15 21:03 | 43.74520 | 11.15641 | 32176 ft | 469 kts | 269° |
| 2026-04-15 21:04 | 43.74369 | 11.11138 | 32472 ft | 469 kts | 269° |
| 2026-04-15 21:04 | 43.74215 | 11.06613 | 32713 ft | 470 kts | 269° |
| 2026-04-15 21:04 | 43.74060 | 11.02092 | 33017 ft | 470 kts | 270° |
| 2026-04-15 21:04 | 43.73904 | 10.97581 | 33288 ft | 470 kts | 270° |
| 2026-04-15 21:05 | 43.73747 | 10.93120 | 33565 ft | 471 kts | 270° |
| 2026-04-15 21:05 | 43.73585 | 10.88545 | 33850 ft | 470 kts | 270° |
| 2026-04-15 21:05 | 43.73422 | 10.84027 | 34073 ft | 471 kts | 271° |
| 2026-04-15 21:06 | 43.73092 | 10.75156 | 34111 ft | 449 kts | 271° |
| 2026-04-15 21:06 | 43.72773 | 10.66639 | 34117 ft | 442 kts | 272° |
| 2026-04-15 21:07 | 43.72459 | 10.58197 | 34121 ft | 443 kts | 272° |
| 2026-04-15 21:07 | 43.72132 | 10.49680 | 34112 ft | 443 kts | 272° |
| 2026-04-15 21:08 | 43.71796 | 10.41169 | 34109 ft | 444 kts | 272° |
| 2026-04-15 21:08 | 43.71454 | 10.32669 | 34100 ft | 444 kts | 272° |
| 2026-04-15 21:09 | 43.71104 | 10.24153 | 34103 ft | 444 kts | 272° |
| 2026-04-15 21:09 | 43.70745 | 10.15605 | 34110 ft | 444 kts | 272° |
| 2026-04-15 21:10 | 43.70392 | 10.07079 | 34110 ft | 444 kts | 272° |
| 2026-04-15 21:10 | 43.70024 | 9.98554 | 34110 ft | 445 kts | 272° |
| 2026-04-15 21:11 | 43.69641 | 9.90002 | 34108 ft | 449 kts | 273° |
| 2026-04-15 21:11 | 43.69258 | 9.81409 | 34101 ft | 451 kts | 272° |
| 2026-04-15 21:12 | 43.68861 | 9.72701 | 34100 ft | 451 kts | 272° |
| 2026-04-15 21:12 | 43.68459 | 9.64053 | 34101 ft | 451 kts | 272° |
| 2026-04-15 21:13 | 43.68055 | 9.55472 | 34100 ft | 451 kts | 272° |
| 2026-04-15 21:13 | 43.67640 | 9.46819 | 34101 ft | 450 kts | 272° |
| 2026-04-15 21:14 | 43.67222 | 9.38197 | 34101 ft | 450 kts | 272° |
| 2026-04-15 21:14 | 43.66799 | 9.29597 | 34100 ft | 449 kts | 272° |
| 2026-04-15 21:15 | 43.66368 | 9.20978 | 34101 ft | 449 kts | 272° |
| 2026-04-15 21:15 | 43.65930 | 9.12388 | 34101 ft | 448 kts | 272° |
| 2026-04-15 21:16 | 43.65489 | 9.03816 | 34101 ft | 447 kts | 272° |
| 2026-04-15 21:16 | 43.65042 | 8.95248 | 34100 ft | 447 kts | 271° |
| 2026-04-15 21:17 | 43.64588 | 8.86689 | 34100 ft | 446 kts | 271° |
| 2026-04-15 21:17 | 43.64128 | 8.78152 | 34119 ft | 445 kts | 271° |
| 2026-04-15 21:18 | 43.63666 | 8.69644 | 34120 ft | 445 kts | 271° |
| 2026-04-15 21:18 | 43.63195 | 8.61134 | 34120 ft | 444 kts | 271° |
| 2026-04-15 21:19 | 43.62718 | 8.52640 | 34119 ft | 444 kts | 271° |
| 2026-04-15 21:19 | 43.62236 | 8.44154 | 34119 ft | 443 kts | 271° |
| 2026-04-15 21:20 | 43.61750 | 8.35735 | 34128 ft | 442 kts | 270° |
| 2026-04-15 21:20 | 43.61256 | 8.27265 | 34127 ft | 442 kts | 270° |
| 2026-04-15 21:21 | 43.60757 | 8.18814 | 34126 ft | 441 kts | 270° |
| 2026-04-15 21:21 | 43.60252 | 8.10358 | 34128 ft | 442 kts | 270° |
| 2026-04-15 21:22 | 43.59743 | 8.01924 | 34127 ft | 441 kts | 270° |
| 2026-04-15 21:22 | 43.59312 | 7.94903 | 34130 ft | 441 kts | 270° |
| 2026-04-15 21:23 | 43.58698 | 7.85131 | 34128 ft | 440 kts | 270° |
| 2026-04-15 21:23 | 43.58258 | 7.78077 | 34128 ft | 440 kts | 270° |
| 2026-04-15 21:24 | 43.57735 | 7.69730 | 34127 ft | 440 kts | 270° |
| 2026-04-15 21:24 | 43.57196 | 7.61323 | 34129 ft | 440 kts | 270° |
| 2026-04-15 21:25 | 43.56651 | 7.52935 | 34128 ft | 439 kts | 270° |
| 2026-04-15 21:25 | 43.56102 | 7.44541 | 34128 ft | 439 kts | 270° |
| 2026-04-15 21:26 | 43.55545 | 7.36154 | 34128 ft | 439 kts | 269° |
| 2026-04-15 21:26 | 43.54979 | 7.27777 | 34128 ft | 438 kts | 269° |
| 2026-04-15 21:27 | 43.54413 | 7.19425 | 34128 ft | 438 kts | 269° |
| 2026-04-15 21:27 | 43.53840 | 7.11083 | 34129 ft | 437 kts | 269° |
| 2026-04-15 21:28 | 43.53263 | 7.02756 | 34127 ft | 436 kts | 269° |
| 2026-04-15 21:28 | 43.52680 | 6.94429 | 34128 ft | 436 kts | 269° |
| 2026-04-15 21:29 | 43.52096 | 6.86130 | 34129 ft | 435 kts | 269° |
| 2026-04-15 21:29 | 43.51506 | 6.77895 | 34127 ft | 434 kts | 268° |
| 2026-04-15 21:30 | 43.50906 | 6.69628 | 34127 ft | 434 kts | 268° |
| 2026-04-15 21:30 | 43.50301 | 6.61351 | 34127 ft | 433 kts | 268° |
| 2026-04-15 21:31 | 43.49388 | 6.48990 | 34129 ft | 432 kts | 268° |
| 2026-04-15 21:32 | 43.48463 | 6.36642 | 34129 ft | 431 kts | 268° |
| 2026-04-15 21:32 | 43.47848 | 6.28480 | 34128 ft | 431 kts | 267° |
| 2026-04-15 21:33 | 43.47218 | 6.20280 | 34128 ft | 431 kts | 267° |
| 2026-04-15 21:33 | 43.46572 | 6.12087 | 34127 ft | 431 kts | 265° |
| 2026-04-15 21:34 | 43.44948 | 6.04092 | 34129 ft | 436 kts | 252° |
| 2026-04-15 21:34 | 43.42681 | 5.96342 | 34129 ft | 437 kts | 250° |
| 2026-04-15 21:35 | 43.40306 | 5.88672 | 34127 ft | 434 kts | 250° |
| 2026-04-15 21:35 | 43.37944 | 5.81057 | 34128 ft | 433 kts | 250° |
| 2026-04-15 21:36 | 43.35611 | 5.73485 | 34126 ft | 432 kts | 250° |
| 2026-04-15 21:36 | 43.33254 | 5.65826 | 34129 ft | 432 kts | 250° |
| 2026-04-15 21:37 | 43.30924 | 5.58282 | 34129 ft | 432 kts | 250° |
| 2026-04-15 21:37 | 43.28561 | 5.50651 | 34128 ft | 431 kts | 250° |
| 2026-04-15 21:38 | 43.26228 | 5.43132 | 34127 ft | 431 kts | 250° |
| 2026-04-15 21:38 | 43.23875 | 5.35571 | 34127 ft | 430 kts | 250° |
| 2026-04-15 21:39 | 43.21522 | 5.28041 | 34128 ft | 430 kts | 250° |
| 2026-04-15 21:39 | 43.19166 | 5.20524 | 34128 ft | 429 kts | 250° |
| 2026-04-15 21:40 | 43.16805 | 5.13010 | 34128 ft | 428 kts | 250° |
| 2026-04-15 21:40 | 43.14451 | 5.05541 | 34126 ft | 427 kts | 250° |
| 2026-04-15 21:41 | 43.12090 | 4.98070 | 34127 ft | 426 kts | 250° |
| 2026-04-15 21:41 | 43.09734 | 4.90634 | 34127 ft | 426 kts | 250° |
| 2026-04-15 21:42 | 43.07377 | 4.83213 | 34143 ft | 425 kts | 249° |
| 2026-04-15 21:42 | 43.04219 | 4.76330 | 34143 ft | 433 kts | 232° |
| 2026-04-15 21:43 | 42.99891 | 4.70590 | 34157 ft | 435 kts | 225° |
| 2026-04-15 21:43 | 42.95372 | 4.65165 | 34156 ft | 435 kts | 224° |
| 2026-04-15 21:44 | 42.90804 | 4.59753 | 34156 ft | 435 kts | 225° |
| 2026-04-15 21:44 | 42.86249 | 4.54309 | 34157 ft | 435 kts | 225° |
| 2026-04-15 21:45 | 42.81718 | 4.48871 | 34164 ft | 434 kts | 225° |
| 2026-04-15 21:45 | 42.77181 | 4.43429 | 34166 ft | 434 kts | 225° |
| 2026-04-15 21:46 | 42.72646 | 4.37995 | 34165 ft | 434 kts | 225° |
| 2026-04-15 21:46 | 42.68106 | 4.32577 | 34165 ft | 434 kts | 225° |
| 2026-04-15 21:47 | 42.63568 | 4.27175 | 34165 ft | 434 kts | 225° |
| 2026-04-15 21:47 | 42.58983 | 4.21726 | 34170 ft | 444 kts | 225° |
| 2026-04-15 21:48 | 42.54259 | 4.16108 | 34192 ft | 457 kts | 225° |
| 2026-04-15 21:48 | 42.49446 | 4.10408 | 34193 ft | 461 kts | 225° |
| 2026-04-15 21:49 | 42.44614 | 4.04708 | 34193 ft | 460 kts | 225° |
| 2026-04-15 21:49 | 42.39869 | 3.99125 | 33760 ft | 450 kts | 225° |
| 2026-04-15 21:49 | 42.37501 | 3.96337 | 32820 ft | 452 kts | 225° |
| 2026-04-15 21:50 | 42.35129 | 3.93544 | 31865 ft | 450 kts | 225° |
| 2026-04-15 21:50 | 42.32800 | 3.90810 | 31291 ft | 438 kts | 225° |
| 2026-04-15 21:50 | 42.30506 | 3.88124 | 30737 ft | 433 kts | 224° |
| 2026-04-15 21:50 | 42.28240 | 3.85467 | 30151 ft | 429 kts | 224° |
| 2026-04-15 21:51 | 42.25997 | 3.82841 | 29541 ft | 426 kts | 224° |
| 2026-04-15 21:51 | 42.23764 | 3.80229 | 28989 ft | 423 kts | 224° |
| 2026-04-15 21:51 | 42.21547 | 3.77634 | 28413 ft | 420 kts | 224° |
| 2026-04-15 21:51 | 42.19349 | 3.75065 | 27861 ft | 417 kts | 224° |
| 2026-04-15 21:52 | 42.17165 | 3.72519 | 27308 ft | 414 kts | 224° |
| 2026-04-15 21:52 | 42.14989 | 3.69980 | 26749 ft | 411 kts | 224° |
| 2026-04-15 21:52 | 42.12831 | 3.67465 | 26201 ft | 409 kts | 224° |
| 2026-04-15 21:52 | 42.10681 | 3.64962 | 25629 ft | 407 kts | 224° |
| 2026-04-15 21:53 | 42.08598 | 3.62466 | 25106 ft | 404 kts | 227° |
| 2026-04-15 21:53 | 42.06595 | 3.59751 | 24714 ft | 403 kts | 229° |
| 2026-04-15 21:53 | 42.04676 | 3.57068 | 24310 ft | 403 kts | 229° |
| 2026-04-15 21:53 | 42.02736 | 3.54350 | 23904 ft | 401 kts | 229° |
| 2026-04-15 21:54 | 42.00809 | 3.51656 | 23494 ft | 399 kts | 229° |
| 2026-04-15 21:54 | 41.98890 | 3.48977 | 23087 ft | 397 kts | 229° |
| 2026-04-15 21:54 | 41.96975 | 3.46312 | 22689 ft | 395 kts | 229° |
| 2026-04-15 21:54 | 41.95070 | 3.43660 | 22281 ft | 393 kts | 229° |
| 2026-04-15 21:55 | 41.93174 | 3.41022 | 21881 ft | 391 kts | 229° |
| 2026-04-15 21:55 | 41.91295 | 3.38407 | 21473 ft | 389 kts | 229° |
| 2026-04-15 21:55 | 41.89418 | 3.35802 | 21092 ft | 387 kts | 229° |
| 2026-04-15 21:55 | 41.87550 | 3.33213 | 20691 ft | 385 kts | 229° |
| 2026-04-15 21:56 | 41.85692 | 3.30639 | 20308 ft | 382 kts | 229° |
| 2026-04-15 21:56 | 41.83845 | 3.28083 | 19911 ft | 380 kts | 229° |
| 2026-04-15 21:56 | 41.82016 | 3.25554 | 19535 ft | 378 kts | 229° |
| 2026-04-15 21:56 | 41.80189 | 3.23028 | 19139 ft | 376 kts | 229° |
| 2026-04-15 21:57 | 41.78374 | 3.20522 | 18755 ft | 374 kts | 229° |
| 2026-04-15 21:57 | 41.76594 | 3.18067 | 18380 ft | 372 kts | 229° |
| 2026-04-15 21:57 | 41.74792 | 3.15585 | 17987 ft | 370 kts | 229° |
| 2026-04-15 21:57 | 41.73005 | 3.13124 | 17624 ft | 368 kts | 229° |
| 2026-04-15 21:58 | 41.71226 | 3.10678 | 17249 ft | 365 kts | 229° |
| 2026-04-15 21:58 | 41.69463 | 3.08254 | 16885 ft | 363 kts | 229° |
| 2026-04-15 21:58 | 41.67705 | 3.05840 | 16504 ft | 360 kts | 228° |
| 2026-04-15 21:58 | 41.65923 | 3.03497 | 16236 ft | 360 kts | 223° |
| 2026-04-15 21:59 | 41.63826 | 3.01653 | 15623 ft | 365 kts | 209° |
| 2026-04-15 21:59 | 41.61522 | 3.00185 | 14947 ft | 367 kts | 206° |
| 2026-04-15 21:59 | 41.59202 | 2.98785 | 14359 ft | 365 kts | 206° |
| 2026-04-15 21:59 | 41.56900 | 2.97390 | 13783 ft | 362 kts | 206° |
| 2026-04-15 22:00 | 41.54626 | 2.96002 | 13227 ft | 359 kts | 206° |
| 2026-04-15 22:00 | 41.52361 | 2.94612 | 12646 ft | 356 kts | 206° |
| 2026-04-15 22:00 | 41.50121 | 2.93234 | 12084 ft | 353 kts | 206° |
| 2026-04-15 22:00 | 41.47906 | 2.91869 | 11523 ft | 349 kts | 206° |
| 2026-04-15 22:01 | 41.45709 | 2.90515 | 10973 ft | 346 kts | 206° |
| 2026-04-15 22:01 | 41.43556 | 2.89190 | 10645 ft | 336 kts | 206° |
| 2026-04-15 22:01 | 41.41463 | 2.87892 | 10336 ft | 326 kts | 207° |
| 2026-04-15 22:01 | 41.39643 | 2.86221 | 10125 ft | 312 kts | 224° |
| 2026-04-15 22:02 | 41.38135 | 2.84201 | 9785 ft | 305 kts | 229° |
| 2026-04-15 22:02 | 41.36686 | 2.82130 | 9328 ft | 305 kts | 229° |
| 2026-04-15 22:02 | 41.35271 | 2.80097 | 8903 ft | 303 kts | 229° |
| 2026-04-15 22:02 | 41.33818 | 2.78028 | 8448 ft | 301 kts | 229° |
| 2026-04-15 22:03 | 41.32412 | 2.76031 | 8064 ft | 298 kts | 229° |
| 2026-04-15 22:03 | 41.30996 | 2.74031 | 7635 ft | 296 kts | 229° |
| 2026-04-15 22:03 | 41.29593 | 2.72052 | 7180 ft | 292 kts | 229° |
| 2026-04-15 22:03 | 41.28212 | 2.70104 | 6488 ft | 288 kts | 229° |
| 2026-04-15 22:04 | 41.26948 | 2.68070 | 5811 ft | 282 kts | 241° |
| 2026-04-15 22:04 | 41.26340 | 2.65653 | 5126 ft | 273 kts | 268° |
| 2026-04-15 22:04 | 41.26628 | 2.63213 | 4446 ft | 266 kts | 292° |
| 2026-04-15 22:04 | 41.27394 | 2.61000 | 3795 ft | 261 kts | 297° |
| 2026-04-15 22:05 | 41.28223 | 2.58879 | 3236 ft | 257 kts | 298° |
| 2026-04-15 22:05 | 41.29065 | 2.56698 | 2927 ft | 269 kts | 297° |
| 2026-04-15 22:05 | 41.29887 | 2.54538 | 2477 ft | 256 kts | 296° |
| 2026-04-15 22:05 | 41.30649 | 2.52524 | 2302 ft | 236 kts | 296° |
| 2026-04-15 22:06 | 41.31350 | 2.50672 | 2280 ft | 211 kts | 296° |
| 2026-04-15 22:06 | 41.31984 | 2.48979 | 2282 ft | 198 kts | 296° |
| 2026-04-15 22:06 | 41.32588 | 2.47365 | 2283 ft | 193 kts | 296° |
| 2026-04-15 22:06 | 41.33189 | 2.45763 | 2298 ft | 201 kts | 296° |
| 2026-04-15 22:07 | 41.33834 | 2.44030 | 2281 ft | 214 kts | 296° |
| 2026-04-15 22:07 | 41.34512 | 2.42208 | 2283 ft | 228 kts | 296° |
| 2026-04-15 22:07 | 41.35187 | 2.40385 | 2265 ft | 207 kts | 296° |
| 2026-04-15 22:07 | 41.35802 | 2.38737 | 2307 ft | 188 kts | 296° |
| 2026-04-15 22:08 | 41.36343 | 2.37292 | 2278 ft | 161 kts | 296° |
| 2026-04-15 22:08 | 41.36809 | 2.36039 | 2290 ft | 143 kts | 296° |
| 2026-04-15 22:08 | 41.37228 | 2.34909 | 2258 ft | 129 kts | 296° |
| 2026-04-15 22:08 | 41.37621 | 2.33861 | 2307 ft | 130 kts | 296° |
| 2026-04-15 22:09 | 41.37966 | 2.32705 | 3031 ft | 143 kts | 280° |
| 2026-04-15 22:09 | 41.37939 | 2.31740 | 3242 ft | 181 kts | 260° |
| 2026-04-15 22:09 | 41.37469 | 2.30078 | 3276 ft | 189 kts | 246° |
| 2026-04-15 22:09 | 41.36890 | 2.28532 | 3191 ft | 181 kts | 245° |
| 2026-04-15 22:10 | 41.36351 | 2.27097 | 3058 ft | 168 kts | 245° |
| 2026-04-15 22:10 | 41.35858 | 2.25746 | 2928 ft | 156 kts | 246° |
| 2026-04-15 22:10 | 41.35415 | 2.24495 | 2835 ft | 145 kts | 247° |
| 2026-04-15 22:10 | 41.34997 | 2.23293 | 2725 ft | 146 kts | 247° |
| 2026-04-15 22:11 | 41.34428 | 2.21580 | 2107 ft | 152 kts | 249° |
| 2026-04-15 22:11 | 41.34140 | 2.20717 | 1802 ft | 150 kts | 246° |
| 2026-04-15 22:11 | 41.33692 | 2.19529 | 1502 ft | 139 kts | 244° |
| 2026-04-15 22:11 | 41.33236 | 2.18402 | 1096 ft | 137 kts | 243° |
| 2026-04-15 22:12 | 41.32812 | 2.17318 | 808 ft | 128 kts | 246° |
| 2026-04-15 22:12 | 41.32396 | 2.16302 | 565 ft | 124 kts | 241° |
| 2026-04-15 22:12 | 41.31944 | 2.15254 | 523 ft | 141 kts | 243° |
| 2026-04-15 22:12 | 41.31552 | 2.14111 | 546 ft | 135 kts | 250° |
| 2026-04-15 22:13 | 41.31309 | 2.12886 | 475 ft | 138 kts | 259° |
| 2026-04-15 22:13 | 41.31036 | 2.11726 | 259 ft | 127 kts | 248° |
| 2026-04-15 22:13 | 41.30665 | 2.10649 | 104 ft | 126 kts | 246° |
| 2026-04-15 22:13 | 41.30329 | 2.09677 | 25 ft | 107 kts | 247° |
| 2026-04-15 22:14 | 41.30071 | 2.08920 | 23 ft | 74 kts | 246° |
| 2026-04-15 22:14 | 41.29890 | 2.08390 | 27 ft | 53 kts | 245° |
| 2026-04-15 22:14 | 41.29775 | 2.08041 | 24 ft | 31 kts | 251° |
| 2026-04-15 22:14 | 41.29749 | 2.07760 | 23 ft | 26 kts | 275° |
| 2026-04-15 22:15 | 41.29766 | 2.07645 | 25 ft | 12 kts | 291° |
| 2026-04-15 22:15 | 41.29801 | 2.07613 | 24 ft | 0 kts | 338° |
| 2026-04-15 22:18 | 41.29808 | 2.07609 | 24 ft | 3 kts | 338° |
| 2026-04-15 22:18 | 41.29840 | 2.07592 | 26 ft | 7 kts | 337° |